createdAt,value
2017-07-31T00:00:47.740Z,4.20
2017-07-31T00:05:51.718Z,4.40
2017-07-31T00:10:54.899Z,4.73
2017-07-31T00:15:58.078Z,4.77
2017-07-31T00:21:02.028Z,4.23
2017-07-31T00:26:05.227Z,4.20
2017-07-31T00:31:08.397Z,3.60
2017-07-31T00:36:12.751Z,4.83
2017-07-31T00:41:16.670Z,5.40
2017-07-31T00:46:19.880Z,4.57
2017-07-31T00:51:23.842Z,5.73
2017-07-31T00:56:27.037Z,5.03
2017-07-31T01:01:30.214Z,4.40
2017-07-31T01:06:34.181Z,5.27
2017-07-31T01:11:37.370Z,3.87
2017-07-31T01:16:40.551Z,4.27
2017-07-31T01:21:44.493Z,4.53
2017-07-31T01:26:47.694Z,5.10
2017-07-31T01:31:50.889Z,5.23
2017-07-31T01:36:54.882Z,4.67
2017-07-31T01:41:58.101Z,4.97
2017-07-31T01:47:02.050Z,5.17
2017-07-31T01:52:05.994Z,4.70
2017-07-31T01:57:09.153Z,4.67
2017-07-31T02:02:12.368Z,4.87
2017-07-31T02:07:15.647Z,5.00
2017-07-31T02:12:18.842Z,4.17
2017-07-31T02:17:22.034Z,5.20
2017-07-31T02:22:25.297Z,4.10
2017-07-31T02:27:29.242Z,5.10
2017-07-31T02:32:32.483Z,4.80
2017-07-31T02:37:35.721Z,5.03
2017-07-31T02:42:38.917Z,4.70
2017-07-31T02:47:42.252Z,4.30
2017-07-31T02:52:46.194Z,4.70
2017-07-31T02:57:50.136Z,5.27
2017-07-31T03:02:53.334Z,4.80
2017-07-31T03:07:56.658Z,6.23
2017-07-31T03:12:59.881Z,5.77
2017-07-31T03:18:03.070Z,5.50
2017-07-31T03:23:06.283Z,5.57
2017-07-31T03:28:09.461Z,4.63
2017-07-31T03:33:12.684Z,4.97
2017-07-31T03:38:15.858Z,5.50
2017-07-31T03:43:19.809Z,5.50
2017-07-31T03:48:22.985Z,5.63
2017-07-31T03:53:26.442Z,7.17
2017-07-31T03:58:29.613Z,5.73
2017-07-31T04:03:33.561Z,5.53
2017-07-31T04:08:36.778Z,6.23
2017-07-31T04:13:39.962Z,5.30
2017-07-31T04:18:43.908Z,5.67
2017-07-31T04:23:47.108Z,5.93
2017-07-31T04:28:50.297Z,5.70
2017-07-31T04:33:54.237Z,5.43
2017-07-31T04:38:57.411Z,5.73
2017-07-31T04:44:01.362Z,5.10
2017-07-31T04:49:04.549Z,4.50
2017-07-31T04:54:08.504Z,5.37
2017-07-31T04:59:11.717Z,7.53
2017-07-31T05:04:14.890Z,6.13
2017-07-31T05:09:18.814Z,5.60
2017-07-31T05:14:22.764Z,5.20
2017-07-31T05:19:25.959Z,5.63
2017-07-31T05:24:29.140Z,5.63
2017-07-31T05:29:32.300Z,5.67
2017-07-31T05:34:35.481Z,5.00
2017-07-31T05:39:38.664Z,5.33
2017-07-31T05:44:42.619Z,4.70
2017-07-31T05:49:45.789Z,5.37
2017-07-31T05:54:49.740Z,5.97
2017-07-31T05:59:52.902Z,5.70
2017-07-31T06:04:56.104Z,6.67
2017-07-31T06:09:59.269Z,4.90
2017-07-31T06:15:02.462Z,6.07
2017-07-31T06:20:05.744Z,5.23
2017-07-31T06:25:08.939Z,4.57
2017-07-31T06:30:12.134Z,5.13
2017-07-31T06:35:15.349Z,4.87
2017-07-31T06:40:18.546Z,5.30
2017-07-31T06:45:21.724Z,5.50
2017-07-31T06:50:24.901Z,6.90
2017-07-31T06:55:28.861Z,6.20
2017-07-31T07:00:32.055Z,5.97
2017-07-31T07:05:35.266Z,6.43
2017-07-31T07:10:38.450Z,7.93
2017-07-31T07:15:42.437Z,7.40
2017-07-31T07:20:45.577Z,6.87
2017-07-31T07:25:49.557Z,6.23
2017-07-31T07:30:52.705Z,7.00
2017-07-31T07:35:56.650Z,6.10
2017-07-31T07:40:59.855Z,6.00
2017-07-31T07:46:03.060Z,6.67
2017-07-31T07:51:07.002Z,7.00
2017-07-31T07:56:10.185Z,6.80
2017-07-31T08:01:14.129Z,6.00
2017-07-31T08:06:17.325Z,6.40
2017-07-31T08:11:20.627Z,6.60
2017-07-31T08:16:24.584Z,5.27
2017-07-31T08:21:27.761Z,5.53
2017-07-31T08:26:31.032Z,6.00
2017-07-31T08:31:34.232Z,6.67
2017-07-31T08:36:37.397Z,6.90
2017-07-31T08:41:40.594Z,5.77
2017-07-31T08:46:43.790Z,6.60
2017-07-31T08:51:47.736Z,6.40
2017-07-31T08:56:50.979Z,6.60
2017-07-31T09:01:54.143Z,5.60
2017-07-31T09:06:57.345Z,6.33
2017-07-31T09:12:00.707Z,6.30
2017-07-31T09:17:03.868Z,5.43
2017-07-31T09:22:07.077Z,6.43
2017-07-31T09:27:10.323Z,6.13
2017-07-31T09:32:13.630Z,6.10
2017-07-31T09:37:16.827Z,5.00
2017-07-31T09:42:20.004Z,4.90
2017-07-31T09:47:23.196Z,5.57
2017-07-31T09:52:27.148Z,5.17
2017-07-31T09:57:30.341Z,4.67
2017-07-31T10:02:33.636Z,5.50
2017-07-31T10:07:37.578Z,5.03
2017-07-31T10:12:40.778Z,5.10
2017-07-31T10:17:43.960Z,4.57
2017-07-31T10:22:47.943Z,5.30
2017-07-31T10:27:51.134Z,5.07
2017-07-31T10:32:54.412Z,5.20
2017-07-31T10:37:58.378Z,5.13
2017-07-31T10:43:01.573Z,4.27
2017-07-31T10:48:05.026Z,4.27
2017-07-31T10:53:08.284Z,4.60
2017-07-31T10:58:11.507Z,4.60
2017-07-31T11:03:14.712Z,4.13
2017-07-31T11:08:17.875Z,4.70
2017-07-31T11:13:21.813Z,4.83
2017-07-31T11:18:25.033Z,5.00
2017-07-31T11:23:28.242Z,4.23
2017-07-31T11:28:31.569Z,4.30
2017-07-31T11:33:34.762Z,4.23
2017-07-31T11:38:37.937Z,4.33
2017-07-31T11:43:41.139Z,4.90
2017-07-31T11:48:45.092Z,4.60
2017-07-31T11:53:48.295Z,4.70
2017-07-31T11:58:51.596Z,5.47
2017-07-31T12:03:56.574Z,6.00
2017-07-31T12:08:59.792Z,4.83
2017-07-31T12:14:03.032Z,4.67
2017-07-31T12:19:06.235Z,3.73
2017-07-31T12:24:09.470Z,4.30
2017-07-31T12:29:13.421Z,4.97
2017-07-31T12:34:16.617Z,4.87
2017-07-31T12:39:19.821Z,4.70
2017-07-31T12:44:23.054Z,5.50
2017-07-31T12:49:26.246Z,4.80
2017-07-31T12:54:29.449Z,4.80
2017-07-31T12:59:32.645Z,4.13
2017-07-31T13:04:35.849Z,4.37
2017-07-31T13:09:39.041Z,4.30
2017-07-31T13:14:43.011Z,5.10
2017-07-31T13:19:46.220Z,4.57
2017-07-31T13:24:49.389Z,5.10
2017-07-31T13:29:52.601Z,4.80
2017-07-31T13:34:55.822Z,4.40
2017-07-31T13:39:59.026Z,4.80
2017-07-31T13:45:02.413Z,5.17
2017-07-31T13:50:06.382Z,5.47
2017-07-31T13:55:09.655Z,5.20
2017-07-31T14:00:13.632Z,5.27
2017-07-31T14:05:16.816Z,5.20
2017-07-31T14:10:20.017Z,5.60
2017-07-31T14:15:23.207Z,4.90
2017-07-31T14:20:26.405Z,5.93
2017-07-31T14:25:29.593Z,5.50
2017-07-31T14:30:33.641Z,5.73
2017-07-31T14:35:36.851Z,4.87
2017-07-31T14:40:40.049Z,6.20
2017-07-31T14:45:43.271Z,7.00
2017-07-31T14:50:46.622Z,5.57
2017-07-31T14:55:49.810Z,6.47
2017-07-31T15:00:52.987Z,6.43
2017-07-31T15:05:56.930Z,6.77
2017-07-31T15:11:00.133Z,6.73
2017-07-31T15:16:03.333Z,6.60
2017-07-31T15:21:06.549Z,6.40
2017-07-31T15:26:09.833Z,6.33
2017-07-31T15:31:13.792Z,5.87
2017-07-31T15:36:16.978Z,6.00
2017-07-31T15:41:20.182Z,6.10
2017-07-31T15:46:23.397Z,5.90
2017-07-31T15:51:26.581Z,5.87
2017-07-31T15:56:29.763Z,5.37
2017-07-31T16:01:32.997Z,5.37
2017-07-31T16:06:36.261Z,6.50
2017-07-31T16:11:39.470Z,6.47
2017-07-31T16:16:42.655Z,6.47
2017-07-31T16:21:45.832Z,6.40
2017-07-31T16:26:49.018Z,6.43
2017-07-31T16:31:52.998Z,6.50
2017-07-31T16:36:56.205Z,6.77
2017-07-31T16:42:02.026Z,5.90
2017-07-31T16:47:22.819Z,6.40
2017-07-31T16:52:26.001Z,6.03
2017-07-31T16:57:29.169Z,5.50
2017-07-31T17:02:32.339Z,6.20
2017-07-31T17:07:36.053Z,7.50
2017-07-31T17:12:39.231Z,5.53
2017-07-31T17:17:42.411Z,5.10
2017-07-31T17:22:46.717Z,6.00
2017-07-31T17:27:50.876Z,5.70
2017-07-31T17:32:54.053Z,5.60
2017-07-31T17:37:58.039Z,6.97
2017-07-31T17:43:01.556Z,6.00
2017-07-31T17:48:04.783Z,5.47
2017-07-31T17:53:07.972Z,6.80
2017-07-31T17:58:11.178Z,6.67
2017-07-31T18:03:14.417Z,6.13
2017-07-31T18:08:17.606Z,6.90
2017-07-31T18:13:20.829Z,6.30
2017-07-31T18:18:24.804Z,7.20
2017-07-31T18:23:27.981Z,5.87
2017-07-31T18:28:31.195Z,6.90
2017-07-31T18:33:34.389Z,5.77
2017-07-31T18:38:38.707Z,6.90
2017-07-31T18:43:42.016Z,6.13
2017-07-31T18:48:45.266Z,8.40
2017-07-31T18:53:48.470Z,5.67
2017-07-31T18:58:51.665Z,6.43
2017-07-31T19:03:54.877Z,7.17
2017-07-31T19:08:58.069Z,6.83
2017-07-31T19:14:02.143Z,6.60
2017-07-31T19:19:05.343Z,7.20
2017-07-31T19:24:08.569Z,6.67
2017-07-31T19:29:11.756Z,8.33
2017-07-31T19:34:15.578Z,7.67
2017-07-31T19:39:18.778Z,8.40
2017-07-31T19:44:22.019Z,8.17
2017-07-31T19:49:25.262Z,9.00
2017-07-31T19:54:29.223Z,8.20
2017-07-31T19:59:35.446Z,8.50
2017-07-31T20:04:38.663Z,8.63
2017-07-31T20:09:42.966Z,8.53
2017-07-31T20:14:46.170Z,8.43
2017-07-31T20:19:49.395Z,9.27
2017-07-31T20:24:52.601Z,7.60
2017-07-31T20:29:55.814Z,7.67
2017-07-31T20:34:59.018Z,7.30
2017-07-31T20:40:02.995Z,8.90
2017-07-31T20:45:06.214Z,10.23
2017-07-31T20:50:09.504Z,8.97
2017-07-31T20:55:12.706Z,9.60
2017-07-31T21:00:15.896Z,8.87
2017-07-31T21:05:19.144Z,8.50
2017-07-31T21:10:22.337Z,9.00
2017-07-31T21:15:25.584Z,8.37
2017-07-31T21:20:28.774Z,8.83
2017-07-31T21:25:31.991Z,9.30
2017-07-31T21:30:35.174Z,9.67
2017-07-31T21:35:38.362Z,9.10
2017-07-31T21:40:41.570Z,9.13
2017-07-31T21:45:44.931Z,8.30
2017-07-31T21:50:48.160Z,8.97
2017-07-31T21:55:52.109Z,9.00
2017-07-31T22:00:55.310Z,8.47
2017-07-31T22:05:58.652Z,8.83
2017-07-31T22:11:01.837Z,8.40
2017-07-31T22:16:05.061Z,7.40
2017-07-31T22:21:13.812Z,8.10
2017-07-31T22:26:17.142Z,8.10
2017-07-31T22:31:20.320Z,6.80
2017-07-31T22:36:23.545Z,8.93
2017-07-31T22:41:26.725Z,8.40
2017-07-31T22:46:29.945Z,7.60
2017-07-31T22:51:33.466Z,8.00
2017-07-31T22:56:36.662Z,8.30
2017-07-31T23:01:39.870Z,7.70
2017-07-31T23:06:43.073Z,7.67
2017-07-31T23:11:46.229Z,7.00
2017-07-31T23:16:50.189Z,7.20
2017-07-31T23:21:53.356Z,6.13
2017-07-31T23:26:56.680Z,6.80
2017-07-31T23:31:59.882Z,7.50
2017-07-31T23:37:03.087Z,6.43
2017-07-31T23:42:07.028Z,6.53
2017-07-31T23:47:10.186Z,6.63
2017-07-31T23:52:13.425Z,7.80
2017-07-31T23:57:17.383Z,6.87
